Time;durP1;ratioP1;P1;durP2;ratioP2;P2;SDS_P1;SDS_P2;PMS_P1;PMS_P2;Temp;Humidity;BMP_temperature;BMP_pressure;BME280_temperature;BME280_humidity;BME280_pressure;Samples;Min_cycle;Max_cycle;Signal;HPM_P1;HPM_P2
2023/09/03 00:03:18;;;;;;;13.45;5.57;;;;;;;17.50;100.00;95164.84;4944004;29;20071;-85
2023/09/03 00:05:50;;;;;;;10.07;5.45;;;;;;;17.53;100.00;95161.63;4958486;29;20138;-85
2023/09/03 00:08:16;;;;;;;15.27;5.27;;;;;;;17.64;100.00;95161.44;4941178;29;20050;-85
2023/09/03 00:10:41;;;;;;;11.88;5.22;;;;;;;17.80;100.00;95156.66;4941100;29;20023;-86
2023/09/03 00:13:25;;;;;;;14.10;5.43;;;;;;;17.64;100.00;95156.13;4941397;29;20054;-85
2023/09/03 00:15:51;;;;;;;10.65;5.30;;;;;;;17.87;100.00;95150.97;4941407;29;20055;-84
2023/09/03 00:18:16;;;;;;;15.10;5.40;;;;;;;17.86;100.00;95141.41;4941226;29;20062;-85
2023/09/03 00:23:41;;;;;;;9.45;5.05;;;;;;;17.95;100.00;95156.38;4943600;29;20069;-85
2023/09/03 00:26:33;;;;;;;11.45;4.80;;;;;;;17.74;100.00;95155.16;4958096;29;20707;-85
2023/09/03 00:28:58;;;;;;;13.23;5.63;;;;;;;17.60;100.00;95145.34;4957942;29;20121;-85
2023/09/03 00:31:25;;;;;;;10.00;4.57;;;;;;;17.63;100.00;95149.28;4941038;29;20113;-85
2023/09/03 00:33:50;;;;;;;14.70;4.90;;;;;;;17.70;100.00;95144.34;4941164;29;20380;-85
2023/09/03 00:36:16;;;;;;;6.55;4.57;;;;;;;17.83;100.00;95157.91;4958163;29;20162;-85
2023/09/03 00:38:41;;;;;;;7.15;4.90;;;;;;;17.85;100.00;95158.41;4957897;29;20392;-84
2023/09/03 00:41:07;;;;;;;14.48;4.80;;;;;;;17.73;100.00;95164.19;4940698;29;20038;-84
2023/09/03 00:46:37;;;;;;;10.25;5.13;;;;;;;17.85;100.00;95164.50;4957771;29;20050;-84
2023/09/03 00:49:21;;;;;;;12.05;5.68;;;;;;;17.57;100.00;95155.72;4924835;29;20031;-84
2023/09/03 00:51:46;;;;;;;16.42;5.47;;;;;;;17.35;100.00;95160.59;4957795;29;20039;-84
2023/09/03 00:57:33;;;;;;;9.70;4.70;;;;;;;17.73;100.00;95153.59;4957422;29;20061;-85
2023/09/03 01:00:17;;;;;;;10.43;4.97;;;;;;;17.84;100.00;95156.84;4940510;29;20122;-85
2023/09/03 01:03:01;;;;;;;10.20;5.15;;;;;;;17.88;100.00;95153.31;4924527;29;20023;-85
2023/09/03 01:05:27;;;;;;;12.90;5.53;;;;;;;17.89;100.00;95157.53;4957494;29;20042;-84
2023/09/03 01:12:02;;;;;;;9.23;5.30;;;;;;;17.95;100.00;95156.38;4956932;28;20050;-85
2023/09/03 01:14:43;;;;;;;14.40;5.55;;;;;;;17.98;100.00;95141.72;4940230;29;20126;-85
2023/09/03 01:17:35;;;;;;;13.98;5.65;;;;;;;17.98;100.00;95146.25;4957067;29;20030;-85
2023/09/03 01:20:10;;;;;;;9.98;4.95;;;;;;;18.01;100.00;95153.59;4940306;29;20058;-85
2023/09/03 01:22:44;;;;;;;11.20;5.32;;;;;;;18.11;100.00;95147.34;4957154;29;20027;-85
2023/09/03 01:25:47;;;;;;;13.50;5.10;;;;;;;18.00;100.00;95149.38;4940169;29;20031;-85
2023/09/03 01:28:52;;;;;;;12.38;5.00;;;;;;;18.18;100.00;95140.56;4957258;29;20031;-85
2023/09/03 01:31:18;;;;;;;15.50;5.40;;;;;;;18.01;100.00;95153.59;4879491;29;20052;-84
2023/09/03 01:33:45;;;;;;;12.32;4.82;;;;;;;18.04;100.00;95151.19;4863948;29;20073;-85
2023/09/03 01:36:11;;;;;;;10.50;4.95;;;;;;;17.97;100.00;95158.69;4894516;29;20134;-85
2023/09/03 01:38:37;;;;;;;11.57;5.75;;;;;;;17.94;100.00;95157.44;4939671;29;20035;-85
2023/09/03 01:41:03;;;;;;;13.25;5.57;;;;;;;18.02;100.00;95148.06;4957122;29;20085;-85
2023/09/03 01:43:28;;;;;;;13.38;5.68;;;;;;;17.97;100.00;95153.41;4940111;29;20042;-85
2023/09/03 01:46:02;;;;;;;13.20;5.25;;;;;;;17.92;100.00;95154.28;4957208;29;20430;-85
2023/09/03 01:48:56;;;;;;;13.68;5.68;;;;;;;17.83;100.00;95149.97;4957195;29;20039;-85
2023/09/03 01:51:21;;;;;;;11.30;5.53;;;;;;;17.78;100.00;95145.53;4957279;29;20039;-85
2023/09/03 01:53:56;;;;;;;9.68;4.97;;;;;;;17.64;100.00;95146.31;4957096;29;20430;-85
2023/09/03 01:56:26;;;;;;;10.02;5.38;;;;;;;17.58;100.00;95144.84;4939719;29;20134;-85
2023/09/03 01:58:53;;;;;;;11.50;5.22;;;;;;;17.53;100.00;95143.06;4939783;29;20098;-85
2023/09/03 02:01:22;;;;;;;11.90;5.97;;;;;;;17.50;100.00;95145.50;4939626;29;20049;-85
2023/09/03 02:03:48;;;;;;;12.30;5.60;;;;;;;17.62;100.00;95145.81;4923996;29;20031;-85
2023/09/03 02:06:13;;;;;;;14.35;5.75;;;;;;;17.27;100.00;95147.22;4939988;29;20065;-85
2023/09/03 02:08:39;;;;;;;11.30;5.28;;;;;;;17.14;100.00;95146.13;4939742;29;20067;-85
2023/09/03 02:11:04;;;;;;;9.00;4.15;;;;;;;17.21;100.00;95141.22;4939563;29;20038;-85
2023/09/03 02:13:29;;;;;;;12.27;5.78;;;;;;;17.21;100.00;95138.56;4939510;29;20103;-85
2023/09/03 02:15:56;;;;;;;8.40;4.82;;;;;;;17.35;100.00;95147.34;4956687;29;20165;-84
2023/09/03 02:18:21;;;;;;;9.48;4.20;;;;;;;17.37;100.00;95139.13;4939609;29;20039;-84
2023/09/03 02:20:47;;;;;;;11.70;5.13;;;;;;;17.34;100.00;95143.13;4939014;29;20487;-84
2023/09/03 02:23:12;;;;;;;15.00;4.90;;;;;;;17.52;100.00;95135.44;4932465;29;20035;-84
2023/09/03 02:25:38;;;;;;;9.38;4.20;;;;;;;17.50;100.00;95138.34;4959593;29;20058;-85
2023/09/03 02:28:07;;;;;;;13.15;5.15;;;;;;;17.38;100.00;95141.47;4960119;29;20043;-83
2023/09/03 02:30:32;;;;;;;7.43;4.22;;;;;;;17.43;100.00;95137.16;4943502;29;20058;-84
2023/09/03 02:32:57;;;;;;;9.45;4.63;;;;;;;17.52;100.00;95143.38;4960047;29;20460;-84
2023/09/03 02:35:23;;;;;;;11.32;4.80;;;;;;;17.56;100.00;95141.69;4942902;29;20361;-84
2023/09/03 02:37:48;;;;;;;15.45;4.65;;;;;;;17.64;100.00;95140.25;4926784;29;20035;-85
2023/09/03 02:40:14;;;;;;;10.02;5.22;;;;;;;17.69;100.00;95147.31;4942704;29;20146;-84
2023/09/03 02:42:39;;;;;;;6.88;4.70;;;;;;;17.64;100.00;95143.66;4960209;29;20437;-84
2023/09/03 02:45:05;;;;;;;10.82;4.60;;;;;;;17.84;100.00;95154.19;4959889;29;20170;-84
2023/09/03 02:47:32;;;;;;;9.60;5.00;;;;;;;17.81;100.00;95151.03;4942420;29;20055;-84
2023/09/03 02:49:57;;;;;;;8.90;4.80;;;;;;;17.77;100.00;95144.75;4939778;29;20032;-84
2023/09/03 02:52:23;;;;;;;14.35;5.15;;;;;;;17.77;100.00;95150.06;4923763;29;20350;-84
2023/09/03 02:54:48;;;;;;;12.65;4.85;;;;;;;17.46;100.00;95142.69;4924007;29;20036;-85
2023/09/03 02:57:14;;;;;;;8.55;4.97;;;;;;;17.30;100.00;95141.38;4938252;29;20497;-84
2023/09/03 02:59:43;;;;;;;9.10;4.53;;;;;;;17.44;100.00;95146.69;4942636;29;20039;-84
2023/09/03 03:02:09;;;;;;;11.90;4.78;;;;;;;17.53;100.00;95145.72;4942689;29;20401;-84
2023/09/03 03:04:34;;;;;;;9.48;4.93;;;;;;;17.62;100.00;95143.16;4942563;29;20035;-84
2023/09/03 03:07:00;;;;;;;14.05;5.20;;;;;;;17.42;100.00;95139.03;4942098;29;20101;-84
2023/09/03 03:09:26;;;;;;;8.15;4.80;;;;;;;17.22;100.00;95148.13;4942470;29;20035;-84
2023/09/03 03:11:51;;;;;;;11.15;5.22;;;;;;;17.28;100.00;95149.59;4942442;29;20441;-83
2023/09/03 03:14:17;;;;;;;11.32;4.82;;;;;;;17.30;100.00;95146.66;4942597;29;20162;-84
2023/09/03 03:16:43;;;;;;;13.65;5.10;;;;;;;17.00;100.00;95149.50;4959807;29;20046;-85
2023/09/03 03:19:08;;;;;;;13.75;5.53;;;;;;;16.94;100.00;95153.28;4941851;29;20035;-84
2023/09/03 03:21:35;;;;;;;11.73;4.97;;;;;;;16.88;100.00;95151.78;4942334;29;20327;-85
2023/09/03 03:24:01;;;;;;;8.63;4.65;;;;;;;16.82;100.00;95146.56;4941919;29;20035;-84
2023/09/03 03:26:26;;;;;;;9.07;4.82;;;;;;;16.84;100.00;95156.09;4959111;29;20137;-85
2023/09/03 03:28:52;;;;;;;11.77;5.35;;;;;;;16.57;100.00;95149.56;4942080;29;20042;-84
2023/09/03 03:31:19;;;;;;;20.95;6.00;;;;;;;16.39;100.00;95146.66;4942197;29;20393;-84
2023/09/03 03:33:45;;;;;;;11.23;4.85;;;;;;;16.59;100.00;95147.44;4941646;29;20086;-84
2023/09/03 03:36:19;;;;;;;9.70;4.72;;;;;;;16.68;100.00;95154.44;4941760;29;20046;-85
2023/09/03 03:38:44;;;;;;;11.85;4.60;;;;;;;16.63;100.00;95156.34;4941596;29;20035;-84
2023/09/03 03:41:13;;;;;;;7.68;4.60;;;;;;;16.66;100.00;95158.44;4941994;29;20050;-84
2023/09/03 03:43:40;;;;;;;15.07;4.70;;;;;;;16.47;100.00;95148.63;4941881;29;20134;-84
2023/09/03 03:46:06;;;;;;;15.75;5.78;;;;;;;16.39;100.00;95158.00;4941932;29;20043;-84
2023/09/03 03:48:32;;;;;;;11.30;5.40;;;;;;;16.50;100.00;95156.03;4941802;29;20043;-84
2023/09/03 03:50:58;;;;;;;12.95;4.82;;;;;;;16.47;100.00;95145.22;4941536;29;20086;-85
2023/09/03 03:53:23;;;;;;;9.07;4.55;;;;;;;16.43;100.00;95152.94;4951107;29;20043;-84
2023/09/03 03:56:01;;;;;;;11.23;5.18;;;;;;;16.37;100.00;95159.38;4938512;29;20417;-85
2023/09/03 03:58:31;;;;;;;9.93;3.97;;;;;;;16.49;100.00;95158.94;4938085;29;20082;-84
2023/09/03 04:00:57;;;;;;;13.80;4.95;;;;;;;16.48;100.00;95149.44;4938419;29;20046;-85
2023/09/03 04:03:23;;;;;;;12.32;4.85;;;;;;;16.47;100.00;95150.50;4939551;29;20433;-85
2023/09/03 04:06:01;;;;;;;11.10;4.45;;;;;;;16.44;100.00;95154.50;4925099;29;20035;-85
2023/09/03 04:08:32;;;;;;;8.50;4.55;;;;;;;16.27;100.00;95154.19;4925370;29;20027;-84
2023/09/03 04:10:59;;;;;;;8.23;4.70;;;;;;;16.36;100.00;95165.72;4941499;29;20061;-84
2023/09/03 04:13:28;;;;;;;17.92;5.22;;;;;;;16.39;100.00;95163.28;4941330;29;20086;-84
2023/09/03 04:15:54;;;;;;;13.43;4.60;;;;;;;16.40;100.00;95167.50;4925412;29;20134;-84
2023/09/03 04:18:19;;;;;;;7.47;4.40;;;;;;;16.45;100.00;95182.53;4940663;29;20154;-84
2023/09/03 04:20:45;;;;;;;9.68;4.75;;;;;;;16.61;100.00;95179.66;4940956;29;20043;-84
2023/09/03 04:23:10;;;;;;;9.05;4.63;;;;;;;16.56;100.00;95187.69;4941234;29;20504;-84
2023/09/03 04:25:37;;;;;;;10.57;4.63;;;;;;;16.43;100.00;95184.66;4941113;29;20046;-84
2023/09/03 04:28:02;;;;;;;9.63;4.32;;;;;;;16.57;100.00;95184.75;4940670;29;20472;-85
2023/09/03 04:30:28;;;;;;;8.52;4.20;;;;;;;16.68;100.00;95190.69;4940670;29;20047;-84
2023/09/03 04:32:53;;;;;;;14.75;4.38;;;;;;;16.61;100.00;95193.69;4958123;29;20062;-84
2023/09/03 04:35:18;;;;;;;12.35;4.32;;;;;;;16.75;100.00;95193.75;4958164;29;20055;-85
2023/09/03 04:37:44;;;;;;;8.65;4.18;;;;;;;16.86;100.00;95186.50;4958055;29;20043;-85
2023/09/03 04:40:10;;;;;;;10.38;4.20;;;;;;;16.71;100.00;95194.63;4924817;29;20082;-85
2023/09/03 04:42:35;;;;;;;11.18;4.20;;;;;;;16.61;100.00;95188.41;4958283;29;20046;-84
2023/09/03 04:45:01;;;;;;;13.45;4.38;;;;;;;16.62;100.00;95186.53;4939982;29;20074;-85
2023/09/03 04:47:27;;;;;;;7.53;3.72;;;;;;;16.73;100.00;95187.97;4940828;29;20043;-84
2023/09/03 04:49:52;;;;;;;9.50;4.63;;;;;;;16.71;100.00;95187.47;4957895;29;20046;-84
2023/09/03 04:52:17;;;;;;;7.00;3.70;;;;;;;16.75;100.00;95190.34;4957899;29;20445;-84
2023/09/03 04:54:43;;;;;;;9.13;4.05;;;;;;;16.75;100.00;95193.00;4940602;29;20047;-85
2023/09/03 04:57:09;;;;;;;10.45;4.38;;;;;;;16.31;100.00;95193.03;4957670;29;20122;-84
2023/09/03 04:59:34;;;;;;;10.88;4.53;;;;;;;16.36;100.00;95192.94;4939968;29;20047;-84
2023/09/03 05:02:00;;;;;;;8.68;4.47;;;;;;;16.40;100.00;95206.41;4957616;29;20162;-84
2023/09/03 05:04:25;;;;;;;10.45;4.10;;;;;;;16.50;100.00;95200.19;4924220;29;20445;-84
2023/09/03 05:06:51;;;;;;;9.70;4.13;;;;;;;16.62;100.00;95205.06;4940371;29;20047;-84
2023/09/03 05:09:16;;;;;;;6.78;3.90;;;;;;;16.78;100.00;95208.28;4957658;29;20043;-84
2023/09/03 05:11:42;;;;;;;12.35;4.20;;;;;;;17.09;100.00;95213.97;4940102;29;20043;-84
2023/09/03 05:14:08;;;;;;;10.25;3.70;;;;;;;17.10;100.00;95220.03;4957630;29;20074;-85
2023/09/03 05:16:33;;;;;;;6.45;3.47;;;;;;;17.13;100.00;95210.75;4940394;29;20429;-85
2023/09/03 05:19:04;;;;;;;8.27;4.15;;;;;;;16.84;100.00;95222.25;4940383;29;20126;-85
2023/09/03 05:21:30;;;;;;;5.85;3.67;;;;;;;16.78;100.00;95217.00;4941196;29;20484;-85
2023/09/03 05:23:55;;;;;;;6.38;3.40;;;;;;;17.04;100.00;95218.56;4940207;29;20035;-85
2023/09/03 05:26:21;;;;;;;7.55;3.88;;;;;;;17.15;100.00;95229.78;4954753;29;20133;-85
2023/09/03 05:28:46;;;;;;;5.03;3.53;;;;;;;17.12;100.00;95227.69;4924001;29;20031;-84
2023/09/03 05:31:12;;;;;;;6.78;3.55;;;;;;;17.28;100.00;95231.69;4939736;29;20401;-85
2023/09/03 05:33:37;;;;;;;6.38;3.60;;;;;;;17.14;100.00;95228.19;4940318;29;20058;-85
2023/09/03 05:36:03;;;;;;;8.25;3.75;;;;;;;17.16;100.00;95229.50;4940167;29;20035;-85
2023/09/03 05:38:28;;;;;;;6.43;3.13;;;;;;;17.15;100.00;95227.13;4923556;29;20043;-85
2023/09/03 05:40:56;;;;;;;5.88;3.65;;;;;;;17.32;100.00;95230.03;4940073;29;20433;-85
2023/09/03 05:43:21;;;;;;;8.43;3.33;;;;;;;17.53;100.00;95235.78;4940186;29;20066;-85
2023/09/03 05:45:48;;;;;;;8.05;3.40;;;;;;;17.71;100.00;95233.38;4957206;29;20507;-85
2023/09/03 05:48:14;;;;;;;8.70;3.45;;;;;;;17.73;100.00;95230.44;4923960;29;20035;-85
2023/09/03 05:50:39;;;;;;;7.93;3.80;;;;;;;17.86;100.00;95229.69;4940112;29;20102;-85
2023/09/03 05:53:05;;;;;;;10.27;3.47;;;;;;;18.02;100.00;95224.09;4939942;29;20352;-83
2023/09/03 05:55:30;;;;;;;14.10;3.70;;;;;;;18.03;100.00;95220.41;4956765;29;20032;-83
2023/09/03 05:57:55;;;;;;;8.38;3.58;;;;;;;18.18;100.00;95217.47;4942451;29;20038;-84
2023/09/03 06:00:21;;;;;;;9.40;3.42;;;;;;;18.33;100.00;95223.56;4960251;29;20428;-84
2023/09/03 06:02:48;;;;;;;9.45;3.53;;;;;;;18.24;100.00;95215.50;4960600;29;20035;-84
2023/09/03 06:05:14;;;;;;;6.47;3.83;;;;;;;17.90;100.00;95214.75;4943987;29;20039;-84
2023/09/03 06:07:39;;;;;;;7.80;3.70;;;;;;;17.91;100.00;95210.25;4943564;29;20089;-84
2023/09/03 06:10:06;;;;;;;9.98;3.70;;;;;;;18.24;100.00;95215.50;4943527;29;20417;-84
2023/09/03 06:12:31;;;;;;;5.65;3.70;;;;;;;18.61;100.00;95212.91;4927714;29;20451;-84
2023/09/03 06:14:57;;;;;;;6.93;3.47;;;;;;;18.76;100.00;95209.94;4960618;29;20043;-84
2023/09/03 06:17:22;;;;;;;7.80;3.38;;;;;;;18.90;100.00;95214.41;4960607;29;20126;-84
2023/09/03 06:19:48;;;;;;;5.10;3.10;;;;;;;19.03;100.00;95224.25;4941662;29;20429;-84
2023/09/03 06:22:14;;;;;;;6.63;3.33;;;;;;;19.08;100.00;95226.00;4960493;29;20038;-84
2023/09/03 06:24:40;;;;;;;8.45;3.83;;;;;;;19.18;100.00;95224.97;4960747;29;20050;-84
2023/09/03 06:27:05;;;;;;;17.52;4.32;;;;;;;18.96;100.00;95226.53;4960178;29;20113;-84
2023/09/03 06:29:30;;;;;;;8.63;3.40;;;;;;;18.90;100.00;95222.38;4943123;29;20031;-83
2023/09/03 06:31:56;;;;;;;5.43;3.22;;;;;;;19.19;100.00;95230.00;4960228;29;20117;-83
2023/09/03 06:34:22;;;;;;;7.68;3.30;;;;;;;19.26;100.00;95218.16;4942998;29;20046;-83
2023/09/03 06:36:48;;;;;;;9.63;3.88;;;;;;;19.40;100.00;95213.56;4959599;29;20031;-82
2023/09/03 06:39:13;;;;;;;6.68;3.65;;;;;;;19.45;100.00;95215.34;4942701;29;20448;-83
2023/09/03 06:41:39;;;;;;;8.30;4.28;;;;;;;19.60;100.00;95214.97;4959787;29;20129;-82
2023/09/03 06:44:05;;;;;;;6.07;3.17;;;;;;;19.69;100.00;95217.66;4959834;29;20066;-82
2023/09/03 06:46:30;;;;;;;5.80;3.20;;;;;;;19.60;100.00;95222.94;4959808;29;20039;-82
2023/09/03 06:48:56;;;;;;;9.05;4.03;;;;;;;19.62;100.00;95223.41;4942477;29;20038;-82
2023/09/03 06:51:21;;;;;;;10.40;4.45;;;;;;;19.71;100.00;95220.03;4942633;29;20456;-83
2023/09/03 06:53:47;;;;;;;8.40;4.35;;;;;;;19.78;100.00;95223.03;4942140;29;20039;-83
2023/09/03 06:56:12;;;;;;;10.27;4.63;;;;;;;20.08;100.00;95223.34;4956756;29;20035;-83
2023/09/03 06:58:38;;;;;;;9.07;4.20;;;;;;;20.01;100.00;95223.81;4923291;29;20458;-82
2023/09/03 07:01:04;;;;;;;11.15;3.88;;;;;;;20.16;100.00;95227.91;4940422;29;20040;-82
2023/09/03 07:03:30;;;;;;;8.35;3.35;;;;;;;20.34;100.00;95230.63;4934894;29;20110;-82
2023/09/03 07:05:55;;;;;;;6.60;3.80;;;;;;;20.36;100.00;95235.66;4959220;29;20524;-82
2023/09/03 07:08:20;;;;;;;14.90;4.85;;;;;;;20.36;100.00;95228.44;4940659;29;20035;-83
2023/09/03 07:10:46;;;;;;;7.57;4.10;;;;;;;20.53;100.00;95233.03;4954050;29;20043;-84
2023/09/03 07:13:11;;;;;;;6.88;3.38;;;;;;;20.69;100.00;95236.06;4923099;29;20103;-83
2023/09/03 07:15:37;;;;;;;9.80;3.83;;;;;;;20.80;100.00;95227.75;4923059;29;20505;-83
2023/09/03 07:18:03;;;;;;;6.07;3.42;;;;;;;20.93;100.00;95226.84;4922819;29;20032;-83
2023/09/03 07:20:29;;;;;;;8.43;3.88;;;;;;;21.06;100.00;95225.16;4922807;29;20035;-84
2023/09/03 07:23:03;;;;;;;8.65;3.70;;;;;;;21.01;100.00;95225.28;4923615;29;20046;-89
2023/09/03 07:25:30;;;;;;;15.02;4.00;;;;;;;20.97;100.00;95229.69;4923083;29;20079;-83
2023/09/03 07:27:56;;;;;;;8.43;3.88;;;;;;;21.22;100.00;95236.13;4923042;29;20031;-83
2023/09/03 07:30:21;;;;;;;7.35;3.28;;;;;;;21.11;100.00;95232.22;4939808;29;20493;-84
2023/09/03 07:32:47;;;;;;;8.73;3.90;;;;;;;20.88;100.00;95232.34;4923119;29;20044;-83
2023/09/03 07:35:12;;;;;;;7.43;3.50;;;;;;;20.83;100.00;95235.94;4922833;29;20446;-84
2023/09/03 07:37:38;;;;;;;6.70;3.53;;;;;;;21.25;100.00;95238.19;4922565;29;20078;-83
2023/09/03 07:40:04;;;;;;;7.70;3.63;;;;;;;21.53;100.00;95232.50;4939553;29;20122;-83
2023/09/03 07:42:29;;;;;;;6.32;3.47;;;;;;;21.41;100.00;95238.47;4922263;29;20078;-85
2023/09/03 07:44:57;;;;;;;7.80;3.60;;;;;;;21.50;100.00;95233.13;4947892;29;20599;-84
2023/09/03 07:47:23;;;;;;;5.85;3.30;;;;;;;21.52;100.00;95240.81;4927656;29;20468;-85
2023/09/03 07:49:48;;;;;;;8.80;3.45;;;;;;;21.82;100.00;95246.28;4938558;29;20059;-84
2023/09/03 07:52:13;;;;;;;14.45;3.97;;;;;;;21.66;100.00;95237.97;4922594;29;20043;-84
2023/09/03 07:54:39;;;;;;;6.78;3.35;;;;;;;21.97;100.00;95231.66;4938446;29;20110;-85
2023/09/03 07:57:05;;;;;;;7.53;3.45;;;;;;;22.26;100.00;95232.78;4938293;29;20106;-84
2023/09/03 07:59:30;;;;;;;5.57;3.45;;;;;;;22.39;100.00;95229.13;4939087;29;20031;-84
2023/09/03 08:01:58;;;;;;;8.23;3.55;;;;;;;22.49;100.00;95225.31;4937709;29;20034;-84
2023/09/03 08:04:27;;;;;;;7.07;3.85;;;;;;;22.54;100.00;95227.03;4922193;29;20031;-84
2023/09/03 08:07:03;;;;;;;9.35;3.15;;;;;;;22.55;100.00;95231.25;4922406;29;20122;-84
2023/09/03 08:09:29;;;;;;;5.63;3.33;;;;;;;22.93;100.00;95238.38;4938287;29;20054;-84
2023/09/03 08:11:56;;;;;;;11.70;3.95;;;;;;;23.02;100.00;95233.78;4939136;29;20039;-84
2023/09/03 08:14:24;;;;;;;11.23;3.60;;;;;;;23.02;100.00;95228.44;4922710;29;20353;-84
2023/09/03 08:16:49;;;;;;;10.00;3.40;;;;;;;23.26;100.00;95235.03;4922020;29;20038;-85
2023/09/03 08:19:17;;;;;;;7.57;3.53;;;;;;;23.34;100.00;95230.72;4940066;29;20039;-85
2023/09/03 08:21:42;;;;;;;6.55;3.47;;;;;;;23.41;100.00;95233.63;4940987;29;20126;-84
2023/09/03 08:24:09;;;;;;;12.60;5.50;;;;;;;23.47;100.00;95242.25;4906676;29;20573;-84
2023/09/03 08:26:35;;;;;;;20.45;10.52;;;;;;;23.53;100.00;95248.97;4922608;29;20034;-87
2023/09/03 08:29:00;;;;;;;17.13;8.45;;;;;;;23.57;100.00;95239.16;4922679;29;20501;-87
2023/09/03 08:31:25;;;;;;;14.80;5.05;;;;;;;23.54;100.00;95239.03;4921868;29;20039;-86
2023/09/03 08:33:53;;;;;;;14.65;4.68;;;;;;;23.30;100.00;95243.97;4906277;29;20028;-87
2023/09/03 08:36:24;;;;;;;12.38;5.30;;;;;;;23.47;100.00;95250.28;4922802;29;20036;-87
2023/09/03 08:38:49;;;;;;;11.98;4.57;;;;;;;23.81;100.00;95251.03;4906519;29;20046;-86
2023/09/03 08:41:15;;;;;;;12.20;4.80;;;;;;;23.91;100.00;95257.09;4906233;29;20454;-85
2023/09/03 08:43:41;;;;;;;7.25;3.78;;;;;;;24.40;100.00;95253.72;4906946;29;20548;-86
2023/09/03 08:46:14;;;;;;;7.07;3.47;;;;;;;24.32;100.00;95249.25;4921921;29;20066;-88
2023/09/03 08:48:40;;;;;;;11.75;3.58;;;;;;;24.44;100.00;95246.56;4938774;29;20118;-87
2023/09/03 08:51:06;;;;;;;8.32;3.25;;;;;;;24.77;100.00;95248.38;4906131;29;20513;-86
2023/09/03 08:53:34;;;;;;;8.88;3.40;;;;;;;25.04;100.00;95250.66;4938736;29;20036;-86
2023/09/03 08:55:59;;;;;;;9.50;3.60;;;;;;;24.49;100.00;95256.28;4922121;29;20046;-86
2023/09/03 08:58:25;;;;;;;10.23;3.55;;;;;;;24.81;100.00;95253.81;4932753;29;20027;-86
2023/09/03 09:00:54;;;;;;;9.45;3.00;;;;;;;24.73;100.00;95250.13;4941005;29;20035;-85
2023/09/03 09:03:23;;;;;;;6.30;3.70;;;;;;;24.51;100.00;95246.81;4940569;29;20062;-85
2023/09/03 09:05:48;;;;;;;7.38;3.50;;;;;;;25.11;100.00;95251.66;4940542;29;20074;-87
2023/09/03 09:08:14;;;;;;;10.88;3.20;;;;;;;25.11;100.00;95250.88;4937392;29;20537;-86
2023/09/03 09:10:43;;;;;;;10.63;3.53;;;;;;;24.85;100.00;95247.47;4937089;29;20098;-85
2023/09/03 09:13:11;;;;;;;7.47;3.10;;;;;;;25.01;94.96;95246.00;4924897;29;20031;-86
2023/09/03 09:15:39;;;;;;;5.38;2.58;;;;;;;25.06;100.00;95243.84;4924611;29;20031;-87
2023/09/03 09:18:08;;;;;;;8.27;2.80;;;;;;;24.96;94.59;95249.69;4924734;29;20027;-85
2023/09/03 09:20:37;;;;;;;8.73;3.70;;;;;;;25.03;99.57;95243.75;4940267;29;20429;-87
2023/09/03 09:23:02;;;;;;;8.68;3.35;;;;;;;25.36;100.00;95235.50;4940663;29;20035;-87
2023/09/03 09:25:28;;;;;;;6.47;3.25;;;;;;;25.50;96.88;95234.34;4957705;29;20058;-84
2023/09/03 09:27:55;;;;;;;15.88;3.53;;;;;;;25.45;91.84;95234.56;4957301;29;20031;-86
2023/09/03 09:30:22;;;;;;;6.70;3.15;;;;;;;25.38;95.32;95232.44;4940352;29;20027;-87
2023/09/03 09:32:48;;;;;;;8.18;3.30;;;;;;;25.17;100.00;95238.00;4934359;29;20467;-84
2023/09/03 09:35:27;;;;;;;8.10;2.90;;;;;;;24.95;86.96;95230.13;4940341;29;20042;-87
2023/09/03 09:37:53;;;;;;;11.50;3.20;;;;;;;25.10;91.98;95234.00;4940520;29;20464;-85
2023/09/03 09:40:36;;;;;;;5.70;2.60;;;;;;;24.64;79.85;95222.69;4924307;29;20039;-88
2023/09/03 09:43:04;;;;;;;9.27;2.75;;;;;;;24.76;83.57;95229.91;4941990;29;20035;-89
2023/09/03 09:45:45;;;;;;;3.83;2.40;;;;;;;24.71;77.62;95226.38;4940899;29;20023;-88
2023/09/03 09:48:10;;;;;;;7.55;2.67;;;;;;;24.96;78.58;95229.03;4924846;29;20122;-91
2023/09/03 09:50:45;;;;;;;17.10;2.83;;;;;;;25.18;76.10;95226.94;4940219;29;20102;-89
2023/09/03 09:53:25;;;;;;;8.82;2.90;;;;;;;25.36;78.50;95219.41;4941126;29;20031;-88
2023/09/03 09:56:13;;;;;;;6.70;2.72;;;;;;;25.15;79.53;95224.94;4957787;29;20126;-91
2023/09/03 09:58:40;;;;;;;5.95;3.10;;;;;;;25.09;85.23;95216.38;4940304;29;20031;-91
2023/09/03 10:01:06;;;;;;;5.78;2.50;;;;;;;25.16;83.50;95221.16;4940447;29;20023;-92
2023/09/03 10:03:48;;;;;;;9.15;2.60;;;;;;;25.25;84.43;95223.69;4924474;29;20122;-89
2023/09/03 10:06:14;;;;;;;4.75;2.40;;;;;;;25.81;84.59;95220.19;4940539;29;20031;-91
2023/09/03 10:08:41;;;;;;;6.10;3.00;;;;;;;25.72;79.67;95216.13;4939891;29;20027;-91
2023/09/03 10:11:15;;;;;;;6.63;2.50;;;;;;;26.13;79.00;95224.03;4939681;29;20094;-87
2023/09/03 10:13:42;;;;;;;7.55;2.60;;;;;;;26.42;77.47;95227.44;4934449;29;20041;-87
2023/09/03 10:16:32;;;;;;;4.78;2.75;;;;;;;26.47;77.78;95227.16;4945406;29;20043;-87
2023/09/03 10:19:10;;;;;;;7.05;2.97;;;;;;;26.04;80.09;95224.19;4922483;29;20508;-87
2023/09/03 10:21:45;;;;;;;5.55;2.67;;;;;;;25.64;72.18;95229.38;4925707;29;20054;-86
2023/09/03 10:24:16;;;;;;;5.72;2.90;;;;;;;25.82;72.05;95224.47;4941142;29;20086;-85
2023/09/03 10:26:44;;;;;;;7.35;2.60;;;;;;;25.68;68.50;95232.16;4939582;29;20039;-86
2023/09/03 10:29:12;;;;;;;5.82;2.65;;;;;;;25.98;71.17;95237.88;4939559;29;20082;-85
2023/09/03 10:31:39;;;;;;;5.65;2.38;;;;;;;26.02;68.62;95232.59;4939529;29;20039;-86
2023/09/03 10:34:11;;;;;;;7.18;3.03;;;;;;;26.07;69.55;95234.25;4939570;29;20066;-85
2023/09/03 10:36:37;;;;;;;4.97;2.72;;;;;;;26.03;66.25;95231.47;4923827;29;20058;-85
2023/09/03 10:39:22;;;;;;;3.80;1.98;;;;;;;26.22;67.26;95230.03;4956570;29;20397;-88
2023/09/03 10:41:47;;;;;;;6.65;2.28;;;;;;;25.96;65.71;95223.25;4942054;29;20040;-85
2023/09/03 10:44:16;;;;;;;5.57;2.33;;;;;;;26.37;68.91;95223.09;4936721;29;20457;-87
2023/09/03 10:47:00;;;;;;;4.70;2.38;;;;;;;26.36;63.71;95221.53;4943181;29;20035;-87
2023/09/03 10:49:46;;;;;;;6.15;2.53;;;;;;;26.11;66.96;95213.63;4943090;29;20039;-85
2023/09/03 10:52:34;;;;;;;4.80;2.47;;;;;;;26.42;62.69;95205.94;4942564;29;20031;-86
2023/09/03 10:55:16;;;;;;;7.40;2.65;;;;;;;26.39;67.32;95202.81;4959878;29;20074;-86
2023/09/03 10:57:46;;;;;;;5.00;2.45;;;;;;;26.25;63.64;95197.09;4923464;29;20111;-86
2023/09/03 11:00:21;;;;;;;6.25;2.33;;;;;;;26.08;65.04;95195.53;4940327;29;20113;-87
2023/09/03 11:02:47;;;;;;;5.43;2.25;;;;;;;26.41;68.08;95197.09;4943801;29;20421;-86
2023/09/03 11:05:28;;;;;;;3.60;2.00;;;;;;;26.68;65.02;95203.47;4959776;29;20031;-86
2023/09/03 11:08:33;;;;;;;3.85;2.00;;;;;;;26.89;66.07;95206.97;4927093;29;20038;-86
2023/09/03 11:11:01;;;;;;;5.57;2.45;;;;;;;26.83;69.92;95209.16;4943399;29;20134;-87
2023/09/03 11:13:27;;;;;;;5.18;2.30;;;;;;;26.69;65.76;95204.22;4943034;29;20069;-86
2023/09/03 11:15:57;;;;;;;6.70;2.03;;;;;;;26.80;66.83;95201.75;4942364;29;20067;-87
2023/09/03 11:18:25;;;;;;;4.72;2.00;;;;;;;26.94;58.11;95199.41;4959516;29;20046;-85
2023/09/03 11:20:51;;;;;;;6.57;2.50;;;;;;;27.08;61.65;95203.50;4942475;29;20043;-85
2023/09/03 11:23:19;;;;;;;4.80;2.40;;;;;;;27.30;63.67;95199.34;4942305;29;20050;-87
2023/09/03 11:25:45;;;;;;;5.72;2.08;;;;;;;27.27;60.83;95210.03;4942296;29;20093;-88
2023/09/03 11:28:11;;;;;;;4.10;1.90;;;;;;;27.29;61.89;95189.72;4941946;29;20058;-85
2023/09/03 11:30:38;;;;;;;5.18;2.45;;;;;;;27.56;57.74;95194.47;4942128;29;20089;-86
2023/09/03 11:33:11;;;;;;;3.33;1.70;;;;;;;27.70;55.41;95192.03;4941796;29;20031;-87
2023/09/03 11:35:44;;;;;;;6.00;1.77;;;;;;;27.78;54.48;95199.06;4942680;29;20032;-86
2023/09/03 11:38:09;;;;;;;4.22;1.85;;;;;;;27.31;49.98;95194.75;4941824;29;20037;-83
2023/09/03 11:40:35;;;;;;;3.60;1.80;;;;;;;27.42;53.39;95184.97;4941888;29;20035;-86
2023/09/03 11:43:00;;;;;;;6.63;1.90;;;;;;;27.37;54.70;95179.84;4941642;29;20547;-87
2023/09/03 11:45:31;;;;;;;6.53;1.80;;;;;;;27.37;55.62;95177.16;4926094;29;20099;-85